Terminal Aerodrome Forecast
Issued by NWS Duluth, MN

Home | Current Version | Previous Version | Text Only | Print | Product List | Glossary On
Versions: 1 2 3 4 5 6 7 8 9 10 11 12 13 14 15 16 17 18 19 20
000
FTUS43 KDLH 260527
TAFINL
TAF
KINL 260527Z 2606/2706 14008KT P6SM VCSH OVC050
     FM260800 12007KT P6SM VCTS BKN015CB OVC040
     FM261200 14008KT P6SM VCSH BKN008
     FM261600 19006KT P6SM VCSH OVC012
     FM262000 23008KT P6SM SCT035 BKN070=

USA.gov is the U.S. government's official web portal to all federal, state and local government web resources and services.